createdAt,value
2023-05-28T00:02:41.074Z,2.03
2023-05-28T00:05:09.243Z,2.00
2023-05-28T00:07:36.690Z,1.85
2023-05-28T00:10:04.444Z,2.20
2023-05-28T00:12:32.960Z,2.38
2023-05-28T00:15:01.079Z,1.17
2023-05-28T00:17:29.767Z,1.92
2023-05-28T00:19:57.062Z,1.45
2023-05-28T00:22:24.671Z,2.17
2023-05-28T00:24:51.795Z,2.20
2023-05-28T00:27:19.178Z,2.15
2023-05-28T00:29:47.059Z,2.17
2023-05-28T00:32:14.293Z,0.98
2023-05-28T00:34:41.429Z,1.83
2023-05-28T00:37:08.724Z,1.10
2023-05-28T00:39:36.030Z,2.50
2023-05-28T00:42:11.826Z,1.92
2023-05-28T00:44:42.653Z,1.30
2023-05-28T00:47:10.677Z,2.13
2023-05-28T00:49:38.136Z,1.95
2023-05-28T00:52:06.420Z,1.95
2023-05-28T00:54:34.093Z,2.17
2023-05-28T00:57:02.201Z,1.65
2023-05-28T00:59:29.759Z,2.00
2023-05-28T01:01:58.342Z,0.80
2023-05-28T01:04:25.667Z,2.20
2023-05-28T01:06:53.843Z,1.80
2023-05-28T01:09:21.125Z,1.67
2023-05-28T01:11:50.628Z,2.22
2023-05-28T01:14:18.286Z,2.10
2023-05-28T01:16:49.711Z,1.83
2023-05-28T01:19:19.978Z,1.70
2023-05-28T01:21:49.106Z,2.05
2023-05-28T01:24:17.740Z,1.70
2023-05-28T01:26:45.711Z,1.80
2023-05-28T01:29:17.907Z,2.10
2023-05-28T01:31:46.517Z,1.98
2023-05-28T01:34:14.633Z,1.55
2023-05-28T01:36:57.641Z,2.08
2023-05-28T01:39:31.942Z,2.00
2023-05-28T01:42:00.111Z,2.13
2023-05-28T01:44:28.531Z,1.75
2023-05-28T01:46:56.479Z,2.33
2023-05-28T01:49:24.106Z,2.30
2023-05-28T01:51:52.440Z,1.63
2023-05-28T01:54:21.401Z,1.52
2023-05-28T01:56:48.584Z,1.85
2023-05-28T01:59:15.785Z,1.80
2023-05-28T02:01:43.346Z,1.98
2023-05-28T02:04:13.563Z,1.92
2023-05-28T02:06:45.267Z,1.92
2023-05-28T02:09:12.655Z,1.45
2023-05-28T02:14:15.860Z,1.10
2023-05-28T02:16:46.866Z,1.70
2023-05-28T02:19:14.295Z,1.55
2023-05-28T02:21:41.954Z,1.20
2023-05-28T02:24:09.280Z,1.65
2023-05-28T02:26:36.569Z,1.40
2023-05-28T02:29:04.045Z,1.17
2023-05-28T02:31:31.743Z,0.65
2023-05-28T02:33:58.938Z,1.52
2023-05-28T02:36:26.154Z,1.27
2023-05-28T02:38:53.312Z,0.80
2023-05-28T02:41:21.906Z,1.42
2023-05-28T02:43:50.720Z,1.63
2023-05-28T02:46:17.973Z,1.50
2023-05-28T02:48:46.428Z,0.95
2023-05-28T02:51:16.405Z,1.20
2023-05-28T02:54:13.026Z,0.93
2023-05-28T02:56:40.213Z,2.05
2023-05-28T02:59:07.304Z,1.35
2023-05-28T03:01:34.561Z,0.93
2023-05-28T03:04:01.716Z,1.63
2023-05-28T03:06:29.008Z,0.82
2023-05-28T03:08:56.222Z,0.65
2023-05-28T03:11:23.683Z,0.95
2023-05-28T03:13:51.446Z,1.02
2023-05-28T03:16:19.314Z,0.90
2023-05-28T03:18:46.679Z,1.45
2023-05-28T03:21:14.907Z,1.50
2023-05-28T03:23:42.434Z,0.82
2023-05-28T03:26:19.669Z,0.70
2023-05-28T03:28:46.804Z,0.90
2023-05-28T03:31:47.890Z,1.40
2023-05-28T03:34:21.818Z,1.52
2023-05-28T03:36:49.120Z,1.20
2023-05-28T03:39:17.991Z,1.30
2023-05-28T03:41:46.628Z,1.15
2023-05-28T03:44:14.966Z,0.90
2023-05-28T03:46:42.147Z,1.08
2023-05-28T03:49:09.576Z,0.57
2023-05-28T03:51:37.926Z,1.40
2023-05-28T03:54:05.098Z,1.10
2023-05-28T03:56:34.909Z,1.08
2023-05-28T03:59:03.940Z,1.08
2023-05-28T04:01:31.900Z,1.00
2023-05-28T04:03:59.283Z,0.93
2023-05-28T04:06:28.027Z,1.23
2023-05-28T04:08:55.236Z,1.77
2023-05-28T04:11:26.196Z,0.65
2023-05-28T04:16:24.188Z,0.45
2023-05-28T04:18:52.095Z,1.40
2023-05-28T04:21:21.980Z,1.38
2023-05-28T04:23:49.359Z,0.90
2023-05-28T04:26:17.573Z,1.13
2023-05-28T04:28:44.942Z,1.30
2023-05-28T04:31:12.234Z,0.80
2023-05-28T04:33:39.832Z,1.20
2023-05-28T04:36:14.590Z,0.95
2023-05-28T04:38:43.114Z,2.05
2023-05-28T04:41:10.476Z,1.30
2023-05-28T04:43:37.598Z,0.90
2023-05-28T04:46:06.176Z,1.70
2023-05-28T04:48:33.429Z,1.50
2023-05-28T04:51:01.604Z,1.33
2023-05-28T04:53:28.834Z,1.55
2023-05-28T04:55:57.030Z,0.70
2023-05-28T04:58:24.171Z,0.50
2023-05-28T05:00:52.409Z,0.90
2023-05-28T05:03:20.695Z,2.53
2023-05-28T05:05:48.679Z,1.80
2023-05-28T05:08:15.991Z,1.17
2023-05-28T05:10:44.744Z,1.55
2023-05-28T05:13:12.304Z,1.70
2023-05-28T05:15:39.739Z,1.60
2023-05-28T05:18:07.368Z,1.50
2023-05-28T05:20:34.981Z,1.17
2023-05-28T05:23:02.248Z,1.73
2023-05-28T05:25:29.658Z,1.50
2023-05-28T05:27:57.225Z,1.55
2023-05-28T05:30:24.527Z,1.77
2023-05-28T05:32:51.822Z,1.88
2023-05-28T05:35:20.867Z,1.20
2023-05-28T05:38:08.314Z,1.77
2023-05-28T05:40:58.586Z,1.60
2023-05-28T05:43:47.431Z,1.05
2023-05-28T05:46:15.823Z,1.65
2023-05-28T05:48:43.252Z,1.73
2023-05-28T05:51:10.480Z,1.90
2023-05-28T05:53:42.885Z,1.80
2023-05-28T05:56:10.215Z,1.73
2023-05-28T05:58:38.281Z,1.85
2023-05-28T06:01:06.370Z,1.73
2023-05-28T06:03:33.843Z,2.08
2023-05-28T06:06:03.815Z,2.00
2023-05-28T06:09:06.113Z,1.92
2023-05-28T06:11:44.219Z,2.38
2023-05-28T06:14:11.410Z,1.30
2023-05-28T06:16:38.702Z,1.67
2023-05-28T06:19:07.367Z,2.00
2023-05-28T06:21:37.895Z,1.50
2023-05-28T06:24:07.853Z,2.15
2023-05-28T06:26:36.515Z,1.55
2023-05-28T06:29:04.201Z,2.22
2023-05-28T06:31:32.870Z,2.08
2023-05-28T06:34:00.192Z,1.92
2023-05-28T06:36:27.500Z,1.45
2023-05-28T06:38:54.682Z,1.83
2023-05-28T06:41:23.583Z,2.20
2023-05-28T06:43:52.294Z,2.38
2023-05-28T06:46:39.727Z,1.42
2023-05-28T06:49:08.410Z,1.38
2023-05-28T06:51:37.635Z,1.80
2023-05-28T06:54:04.958Z,2.42
2023-05-28T06:56:33.799Z,2.20
2023-05-28T06:59:19.415Z,2.30
2023-05-28T07:01:46.607Z,1.35
2023-05-28T07:04:49.355Z,0.80
2023-05-28T07:07:21.797Z,1.35
2023-05-28T07:09:49.166Z,1.88
2023-05-28T07:12:16.318Z,1.70
2023-05-28T07:14:48.469Z,2.00
2023-05-28T07:17:15.873Z,2.22
2023-05-28T07:19:44.892Z,2.22
2023-05-28T07:22:13.255Z,1.90
2023-05-28T07:24:41.589Z,1.90
2023-05-28T07:27:08.827Z,1.95
2023-05-28T07:29:37.145Z,1.55
2023-05-28T07:32:04.785Z,1.85
2023-05-28T07:34:36.212Z,0.90
2023-05-28T07:37:03.579Z,1.88
2023-05-28T07:39:30.790Z,1.55
2023-05-28T07:41:57.881Z,1.17
2023-05-28T07:44:29.625Z,2.30
2023-05-28T07:46:58.023Z,2.47
2023-05-28T07:49:47.844Z,2.20
2023-05-28T07:52:20.583Z,2.20
2023-05-28T07:54:47.815Z,2.20
2023-05-28T07:57:17.342Z,2.13
2023-05-28T07:59:44.726Z,2.22
2023-05-28T08:02:12.989Z,1.63
2023-05-28T08:04:40.265Z,1.73
2023-05-28T08:07:07.799Z,1.58
2023-05-28T08:09:35.291Z,2.10
2023-05-28T08:12:03.540Z,2.10
2023-05-28T08:14:33.018Z,1.20
2023-05-28T08:17:06.084Z,1.83
2023-05-28T08:20:01.052Z,1.65
2023-05-28T08:22:43.963Z,1.60
2023-05-28T08:25:11.825Z,2.95
2023-05-28T08:27:39.708Z,1.70
2023-05-28T08:30:07.765Z,2.30
2023-05-28T08:32:42.437Z,2.33
2023-05-28T08:35:10.001Z,2.30
2023-05-28T08:37:37.732Z,2.70
2023-05-28T08:40:23.693Z,2.50
2023-05-28T08:42:51.647Z,2.28
2023-05-28T08:45:18.985Z,2.50
2023-05-28T08:47:50.074Z,3.08
2023-05-28T08:50:43.048Z,2.92
2023-05-28T08:53:47.581Z,1.92
2023-05-28T08:56:22.407Z,3.10
2023-05-28T08:58:51.455Z,2.95
2023-05-28T09:01:18.971Z,3.05
2023-05-28T09:03:55.749Z,2.83
2023-05-28T09:06:32.311Z,3.08
2023-05-28T09:09:00.324Z,3.00
2023-05-28T09:11:38.292Z,3.85
2023-05-28T09:14:14.119Z,3.58
2023-05-28T09:16:43.480Z,3.58
2023-05-28T09:19:16.937Z,2.13
2023-05-28T09:24:42.250Z,3.08
2023-05-28T09:27:28.705Z,3.63
2023-05-28T09:29:56.299Z,4.20
2023-05-28T09:32:24.192Z,3.90
2023-05-28T09:34:51.751Z,3.30
2023-05-28T09:37:19.359Z,3.30
2023-05-28T09:39:46.874Z,4.00
2023-05-28T09:42:14.521Z,3.28
2023-05-28T09:44:43.277Z,3.42
2023-05-28T09:47:28.781Z,3.20
2023-05-28T09:49:56.030Z,2.95
2023-05-28T09:52:23.927Z,2.50
2023-05-28T09:54:56.769Z,3.30
2023-05-28T09:57:28.827Z,6.45
2023-05-28T09:59:58.734Z,2.70
2023-05-28T10:03:01.717Z,3.30
2023-05-28T10:05:32.850Z,2.97
2023-05-28T10:08:03.241Z,3.20
2023-05-28T10:10:33.144Z,3.03
2023-05-28T10:13:02.690Z,2.80
2023-05-28T10:15:30.151Z,3.28
2023-05-28T10:17:58.831Z,2.75
2023-05-28T10:20:26.746Z,3.33
2023-05-28T10:22:54.428Z,2.10
2023-05-28T10:25:22.098Z,2.55
2023-05-28T10:27:49.981Z,2.55
2023-05-28T10:30:40.375Z,1.60
2023-05-28T10:33:16.301Z,2.00
2023-05-28T10:36:01.902Z,1.70
2023-05-28T10:38:30.601Z,0.90
2023-05-28T10:41:04.582Z,2.28
2023-05-28T10:43:41.792Z,1.60
2023-05-28T10:46:18.627Z,2.25
2023-05-28T10:49:15.651Z,2.42
2023-05-28T10:52:03.185Z,1.50
2023-05-28T10:54:30.792Z,2.00
2023-05-28T10:57:14.460Z,1.92
2023-05-28T10:59:48.961Z,1.95
2023-05-28T11:02:29.810Z,2.30
2023-05-28T11:07:32.265Z,1.95
2023-05-28T11:10:00.545Z,1.55
2023-05-28T11:12:29.389Z,2.42
2023-05-28T11:14:56.779Z,1.73
2023-05-28T11:17:24.271Z,2.13
2023-05-28T11:19:53.081Z,1.55
2023-05-28T11:22:21.253Z,1.55
2023-05-28T11:25:05.868Z,1.35
2023-05-28T11:27:35.976Z,1.95
2023-05-28T11:30:14.423Z,2.00
2023-05-28T11:32:43.082Z,2.17
2023-05-28T11:35:14.887Z,2.20
2023-05-28T11:37:43.819Z,2.00
2023-05-28T11:40:12.806Z,1.48
2023-05-28T11:42:41.738Z,1.80
2023-05-28T11:45:11.103Z,1.50
2023-05-28T11:47:39.048Z,1.75
2023-05-28T11:50:14.778Z,1.40
2023-05-28T11:52:43.488Z,2.30
2023-05-28T11:55:11.643Z,2.00
2023-05-28T11:57:40.219Z,2.05
2023-05-28T12:00:13.507Z,2.20
2023-05-28T12:02:54.574Z,2.00
2023-05-28T12:05:22.072Z,1.92
2023-05-28T12:07:53.595Z,2.05
2023-05-28T12:10:27.709Z,1.20
2023-05-28T12:12:57.468Z,1.90
2023-05-28T12:15:30.897Z,2.08
2023-05-28T12:18:01.949Z,1.80
2023-05-28T12:20:49.509Z,1.52
2023-05-28T12:23:21.863Z,1.60
2023-05-28T12:25:52.971Z,0.77
2023-05-28T12:28:22.152Z,0.95
2023-05-28T12:30:52.308Z,1.17
2023-05-28T12:33:20.152Z,1.30
2023-05-28T12:35:47.904Z,1.10
2023-05-28T12:38:15.677Z,1.50
2023-05-28T12:40:42.859Z,1.30
2023-05-28T12:43:10.297Z,1.30
2023-05-28T12:45:37.867Z,1.30
2023-05-28T12:48:05.232Z,2.80
2023-05-28T12:50:32.555Z,1.25
2023-05-28T12:52:59.878Z,1.50
2023-05-28T12:55:27.159Z,1.90
2023-05-28T12:57:54.442Z,1.40
2023-05-28T13:00:22.585Z,1.30
2023-05-28T13:02:49.891Z,1.30
2023-05-28T13:05:17.687Z,1.63
2023-05-28T13:07:45.058Z,1.90
2023-05-28T13:10:15.108Z,2.13
2023-05-28T13:12:42.719Z,1.33
2023-05-28T13:15:10.389Z,1.52
2023-05-28T13:17:37.618Z,1.50
2023-05-28T13:20:11.837Z,1.50
2023-05-28T13:22:39.932Z,1.75
2023-05-28T13:25:08.948Z,0.80
2023-05-28T13:27:36.386Z,1.00
2023-05-28T13:30:04.336Z,1.30
2023-05-28T13:32:34.573Z,0.82
2023-05-28T13:35:01.822Z,1.23
2023-05-28T13:37:34.784Z,0.85
2023-05-28T13:40:03.608Z,1.10
2023-05-28T13:42:31.701Z,1.20
2023-05-28T13:44:58.937Z,1.00
2023-05-28T13:47:26.993Z,1.23
2023-05-28T13:49:54.242Z,0.70
2023-05-28T13:52:21.505Z,0.98
2023-05-28T13:54:48.637Z,0.85
2023-05-28T13:57:15.924Z,1.42
2023-05-28T13:59:43.059Z,1.33
2023-05-28T14:02:10.691Z,1.00
2023-05-28T14:04:37.896Z,1.00
2023-05-28T14:07:06.903Z,1.40
2023-05-28T14:09:34.165Z,1.38
2023-05-28T14:12:19.969Z,1.20
2023-05-28T14:14:49.897Z,1.00
2023-05-28T14:17:18.253Z,1.10
2023-05-28T14:19:48.257Z,1.00
2023-05-28T14:22:16.016Z,1.13
2023-05-28T14:24:43.238Z,0.80
2023-05-28T14:27:11.209Z,0.90
2023-05-28T14:29:39.702Z,0.95
2023-05-28T14:32:07.471Z,1.00
2023-05-28T14:34:34.892Z,0.85
2023-05-28T14:37:02.105Z,1.13
2023-05-28T14:39:29.282Z,1.98
2023-05-28T14:41:56.434Z,1.00
2023-05-28T14:44:24.894Z,1.00
2023-05-28T14:46:52.243Z,1.58
2023-05-28T14:49:19.670Z,0.95
2023-05-28T14:51:46.884Z,1.25
2023-05-28T14:54:14.125Z,1.10
2023-05-28T14:56:41.556Z,1.33
2023-05-28T14:59:08.782Z,1.30
2023-05-28T15:01:36.062Z,1.02
2023-05-28T15:04:03.484Z,1.20
2023-05-28T15:06:30.776Z,1.10
2023-05-28T15:08:57.923Z,1.25
2023-05-28T15:11:26.908Z,1.25
2023-05-28T15:13:55.434Z,1.33
2023-05-28T15:16:25.018Z,1.13
2023-05-28T15:18:52.315Z,1.20
2023-05-28T15:21:19.591Z,1.02
2023-05-28T15:23:46.869Z,1.13
2023-05-28T15:26:14.220Z,1.20
2023-05-28T15:28:41.485Z,1.60
2023-05-28T15:31:08.887Z,1.50
2023-05-28T15:33:36.828Z,1.40
2023-05-28T15:36:04.355Z,1.48
2023-05-28T15:38:31.876Z,1.45
2023-05-28T15:40:59.260Z,1.52
2023-05-28T15:43:27.250Z,1.50
2023-05-28T15:45:54.770Z,1.33
2023-05-28T15:48:22.072Z,1.50
2023-05-28T15:50:49.234Z,1.40
2023-05-28T15:53:16.720Z,1.85
2023-05-28T15:55:44.145Z,1.38
2023-05-28T15:58:11.503Z,1.30
2023-05-28T16:00:39.047Z,1.30
2023-05-28T16:03:07.925Z,1.65
2023-05-28T16:05:36.748Z,1.38
2023-05-28T16:08:04.718Z,1.60
2023-05-28T16:10:32.398Z,1.38
2023-05-28T16:13:03.220Z,1.50
2023-05-28T16:15:31.244Z,1.58
2023-05-28T16:17:59.350Z,2.10
2023-05-28T16:20:26.934Z,1.10
2023-05-28T16:22:54.308Z,1.40
2023-05-28T16:25:22.584Z,1.40
2023-05-28T16:27:53.280Z,1.48
2023-05-28T16:30:24.677Z,1.42
2023-05-28T16:32:52.242Z,1.40
2023-05-28T16:35:19.789Z,2.50
2023-05-28T16:37:47.627Z,1.30
2023-05-28T16:40:15.306Z,1.40
2023-05-28T16:42:44.362Z,1.25
2023-05-28T16:47:56.087Z,0.95
2023-05-28T16:50:23.488Z,1.08
2023-05-28T16:52:50.737Z,1.30
2023-05-28T16:55:20.652Z,1.20
2023-05-28T16:57:48.333Z,0.98
2023-05-28T17:05:44.420Z,1.30
2023-05-28T17:08:11.644Z,1.10
2023-05-28T17:10:38.902Z,1.50
2023-05-28T17:15:47.552Z,0.98
2023-05-28T17:18:15.057Z,0.90
2023-05-28T17:23:23.948Z,1.23
2023-05-28T17:25:51.241Z,1.00
2023-05-28T17:28:18.518Z,1.20
2023-05-28T17:30:45.896Z,1.35
2023-05-28T17:33:13.210Z,1.60
2023-05-28T17:35:40.593Z,1.10
2023-05-28T17:38:08.484Z,1.23
2023-05-28T17:40:35.869Z,1.40
2023-05-28T17:43:03.121Z,1.40
2023-05-28T17:48:11.618Z,1.15
2023-05-28T17:50:38.843Z,1.40
2023-05-28T17:53:06.237Z,1.20
2023-05-28T17:55:33.425Z,1.10
2023-05-28T17:58:00.605Z,1.10
2023-05-28T18:00:27.874Z,1.25
2023-05-28T18:02:57.842Z,1.17
2023-05-28T18:05:28.281Z,1.17
2023-05-28T18:07:55.578Z,1.48
2023-05-28T18:10:22.773Z,2.17
2023-05-28T18:12:49.953Z,1.92
2023-05-28T18:15:19.889Z,1.73
2023-05-28T18:17:47.101Z,1.58
2023-05-28T18:20:14.631Z,1.67
2023-05-28T18:22:41.904Z,1.60
2023-05-28T18:25:09.645Z,1.60
2023-05-28T18:27:37.037Z,1.70
2023-05-28T18:30:05.190Z,1.70
2023-05-28T18:32:32.839Z,1.50
2023-05-28T18:37:42.467Z,1.50
2023-05-28T18:43:01.913Z,1.50
2023-05-28T18:45:29.134Z,1.50
2023-05-28T18:47:56.900Z,1.45
2023-05-28T18:50:24.246Z,1.48
2023-05-28T18:55:34.142Z,1.40
2023-05-28T19:00:43.628Z,1.50
2023-05-28T19:03:11.017Z,1.80
2023-05-28T19:08:19.767Z,1.85
2023-05-28T19:10:47.089Z,1.40
2023-05-28T19:13:14.473Z,1.90
2023-05-28T19:18:24.237Z,2.03
2023-05-28T19:20:51.609Z,2.15
2023-05-28T19:23:18.936Z,2.30
2023-05-28T19:25:52.059Z,1.70
2023-05-28T19:28:19.470Z,1.98
2023-05-28T19:30:47.438Z,1.98
2023-05-28T19:33:14.809Z,1.95
2023-05-28T19:35:42.015Z,2.08
2023-05-28T19:38:09.220Z,2.00
2023-05-28T19:40:36.846Z,1.45
2023-05-28T19:43:04.046Z,1.70
2023-05-28T19:45:31.305Z,1.50
2023-05-28T19:47:59.125Z,2.08
2023-05-28T19:58:38.492Z,1.70
2023-05-28T20:01:05.799Z,1.65
2023-05-28T20:06:17.396Z,3.22
2023-05-28T20:08:44.701Z,1.60
2023-05-28T20:16:37.586Z,1.60
2023-05-28T20:19:04.860Z,1.73
2023-05-28T20:24:20.017Z,1.08
2023-05-28T20:26:47.325Z,1.90
2023-05-28T20:29:32.880Z,2.20
2023-05-28T20:32:20.029Z,2.53
2023-05-28T20:43:38.126Z,1.92
2023-05-28T20:46:05.320Z,2.00
2023-05-28T20:48:32.526Z,1.83
2023-05-28T20:51:00.055Z,2.13
2023-05-28T20:53:27.374Z,2.33
2023-05-28T20:58:39.160Z,2.60
2023-05-28T21:01:06.543Z,2.30
2023-05-28T21:03:33.992Z,2.40
2023-05-28T21:06:01.250Z,2.13
2023-05-28T21:11:14.778Z,2.20
2023-05-28T21:13:41.982Z,2.28
2023-05-28T21:18:50.928Z,2.42
2023-05-28T21:21:18.129Z,3.20
2023-05-28T21:23:45.439Z,2.33
2023-05-28T21:26:12.732Z,2.35
2023-05-28T21:28:39.962Z,2.88
2023-05-28T21:31:25.902Z,2.47
2023-05-28T21:33:53.282Z,2.85
2023-05-28T21:41:44.090Z,2.30
2023-05-28T21:44:11.350Z,2.70
2023-05-28T21:49:23.047Z,2.40
2023-05-28T21:51:54.532Z,2.50
2023-05-28T21:54:21.720Z,2.40
2023-05-28T21:56:49.019Z,2.30
2023-05-28T21:59:16.368Z,2.22
2023-05-28T22:01:43.599Z,2.58
2023-05-28T22:04:11.064Z,2.38
2023-05-28T22:06:39.355Z,2.53
2023-05-28T22:09:07.926Z,2.38
2023-05-28T22:11:35.201Z,2.60
2023-05-28T22:14:02.887Z,2.53
2023-05-28T22:16:32.102Z,2.45
2023-05-28T22:18:59.994Z,2.58
2023-05-28T22:21:27.274Z,2.30
2023-05-28T22:23:54.430Z,2.78
2023-05-28T22:26:23.150Z,3.38
2023-05-28T22:28:58.370Z,3.10
2023-05-28T22:31:26.486Z,2.65
2023-05-28T22:33:54.615Z,3.33
2023-05-28T22:36:22.248Z,3.10
2023-05-28T22:38:49.593Z,3.75
2023-05-28T22:41:16.964Z,3.00
2023-05-28T22:46:28.582Z,2.90
2023-05-28T22:48:58.790Z,2.90
2023-05-28T22:51:26.852Z,2.72
2023-05-28T22:53:55.254Z,3.30
2023-05-28T22:56:23.175Z,2.95
2023-05-28T22:58:51.012Z,2.90
2023-05-28T23:04:05.349Z,3.60
2023-05-28T23:06:32.565Z,3.22
2023-05-28T23:08:59.815Z,3.17
2023-05-28T23:11:27.065Z,3.47
2023-05-28T23:13:54.234Z,3.47
2023-05-28T23:16:28.706Z,3.38
2023-05-28T23:18:55.941Z,3.17
2023-05-28T23:21:39.945Z,3.05
2023-05-28T23:24:07.624Z,2.80
2023-05-28T23:26:35.208Z,5.40
2023-05-28T23:29:04.141Z,5.15
2023-05-28T23:31:38.853Z,3.70
2023-05-28T23:34:25.585Z,3.47
2023-05-28T23:39:39.334Z,2.78
2023-05-28T23:42:09.538Z,3.10
2023-05-28T23:44:36.706Z,3.45
2023-05-28T23:47:04.093Z,3.53
2023-05-28T23:49:31.520Z,3.00
2023-05-28T23:51:58.691Z,2.72
2023-05-28T23:57:07.650Z,3.20
2023-05-28T23:59:34.797Z,3.83
